createdAt,value
2018-11-12T00:01:55.043Z,13.93
2018-11-12T00:04:23.575Z,13.60
2018-11-12T00:06:52.069Z,11.37
2018-11-12T00:09:20.573Z,13.07
2018-11-12T00:11:49.488Z,11.40
2018-11-12T00:14:17.934Z,11.90
2018-11-12T00:16:46.477Z,12.30
2018-11-12T00:19:14.945Z,10.10
2018-11-12T00:21:43.388Z,12.93
2018-11-12T00:24:11.784Z,12.23
2018-11-12T00:26:40.250Z,9.83
2018-11-12T00:29:08.731Z,7.63
2018-11-12T00:31:37.244Z,15.10
2018-11-12T00:34:05.793Z,11.23
2018-11-12T00:36:34.399Z,10.73
2018-11-12T00:39:02.932Z,7.60
2018-11-12T00:41:31.467Z,9.53
2018-11-12T00:43:59.961Z,12.17
2018-11-12T00:46:28.507Z,13.83
2018-11-12T00:48:56.964Z,10.03
2018-11-12T00:51:25.374Z,10.53
2018-11-12T00:53:53.905Z,8.37
2018-11-12T00:56:22.358Z,10.07
2018-11-12T00:58:50.805Z,9.20
2018-11-12T01:01:19.261Z,13.80
2018-11-12T01:03:47.762Z,11.07
2018-11-12T01:06:16.262Z,11.13
2018-11-12T01:08:44.685Z,11.83
2018-11-12T01:11:13.109Z,10.70
2018-11-12T01:13:41.746Z,12.43
2018-11-12T01:16:10.617Z,18.57
2018-11-12T01:18:39.041Z,8.97
2018-11-12T01:21:07.628Z,15.43
2018-11-12T01:23:36.216Z,14.07
2018-11-12T01:26:04.740Z,14.77
2018-11-12T01:28:33.298Z,14.90
2018-11-12T01:31:03.777Z,12.83
2018-11-12T01:33:32.868Z,12.63
2018-11-12T01:36:01.404Z,17.17
2018-11-12T01:38:30.227Z,11.80
2018-11-12T01:40:58.615Z,11.37
2018-11-12T01:43:28.341Z,16.17
2018-11-12T01:45:56.782Z,15.73
2018-11-12T01:48:26.352Z,17.27
2018-11-12T01:50:54.771Z,15.27
2018-11-12T01:53:23.229Z,12.17
2018-11-12T01:55:51.716Z,15.60
2018-11-12T01:58:20.289Z,14.27
2018-11-12T02:00:48.729Z,15.17
2018-11-12T02:03:17.409Z,19.80
2018-11-12T02:05:46.096Z,18.57
2018-11-12T02:08:14.809Z,15.57
2018-11-12T02:10:43.668Z,17.83
2018-11-12T02:13:12.392Z,18.07
2018-11-12T02:15:41.362Z,17.53
2018-11-12T02:18:09.835Z,16.33
2018-11-12T02:20:38.521Z,13.60
2018-11-12T02:23:07.853Z,16.13
2018-11-12T02:25:36.300Z,23.50
2018-11-12T02:28:04.820Z,20.30
2018-11-12T02:30:38.701Z,18.47
2018-11-12T02:33:07.278Z,22.17
2018-11-12T02:35:35.618Z,19.87
2018-11-12T02:38:05.286Z,22.27
2018-11-12T02:40:34.012Z,20.10
2018-11-12T02:43:02.380Z,24.97
2018-11-12T02:45:30.873Z,19.70
2018-11-12T02:47:59.525Z,23.00
2018-11-12T02:50:28.234Z,24.33
2018-11-12T02:52:56.840Z,23.73
2018-11-12T02:55:25.540Z,22.67
2018-11-12T02:57:53.970Z,21.77
2018-11-12T03:00:23.349Z,32.13
2018-11-12T03:02:51.864Z,21.50
2018-11-12T03:05:20.836Z,21.53
2018-11-12T03:07:49.421Z,22.47
2018-11-12T03:10:20.764Z,22.23
2018-11-12T03:12:49.273Z,23.13
2018-11-12T03:15:18.341Z,21.53
2018-11-12T03:17:47.565Z,24.80
2018-11-12T03:20:19.200Z,23.07
2018-11-12T03:22:47.689Z,23.07
2018-11-12T03:25:17.245Z,19.77
2018-11-12T03:27:46.548Z,26.13
2018-11-12T03:30:17.118Z,25.37
2018-11-12T03:32:46.322Z,21.53
2018-11-12T03:35:14.995Z,24.20
2018-11-12T03:37:44.738Z,22.50
2018-11-12T03:40:15.405Z,30.13
2018-11-12T03:42:44.432Z,26.33
2018-11-12T03:45:28.704Z,24.10
2018-11-12T03:47:57.228Z,26.60
2018-11-12T03:50:25.921Z,24.27
2018-11-12T03:52:54.849Z,25.43
2018-11-12T03:55:23.944Z,26.87
2018-11-12T03:57:52.503Z,26.60
2018-11-12T04:00:22.813Z,26.20
2018-11-12T04:02:51.509Z,26.83
2018-11-12T04:05:19.929Z,24.87
2018-11-12T04:07:48.507Z,25.80
2018-11-12T04:10:18.193Z,26.03
2018-11-12T04:12:47.112Z,26.73
2018-11-12T04:15:16.884Z,29.53
2018-11-12T04:17:45.545Z,31.07
2018-11-12T04:20:15.548Z,25.00
2018-11-12T04:23:03.161Z,27.93
2018-11-12T04:25:32.622Z,25.63
2018-11-12T04:28:01.276Z,26.33
2018-11-12T04:30:29.901Z,28.93
2018-11-12T04:32:58.407Z,28.60
2018-11-12T04:35:26.875Z,32.23
2018-11-12T04:37:55.470Z,23.83
2018-11-12T04:40:24.089Z,24.97
2018-11-12T04:42:52.561Z,29.40
2018-11-12T04:45:22.448Z,29.10
2018-11-12T04:47:51.524Z,27.83
2018-11-12T04:50:22.280Z,26.60
2018-11-12T04:52:51.047Z,27.47
2018-11-12T04:55:20.465Z,25.13
2018-11-12T04:57:49.134Z,30.70
2018-11-12T05:00:19.976Z,27.13
2018-11-12T05:02:48.548Z,29.40
2018-11-12T05:05:19.168Z,23.80
2018-11-12T05:07:47.681Z,27.83
2018-11-12T05:10:17.549Z,30.07
2018-11-12T05:12:46.442Z,33.27
2018-11-12T05:15:16.932Z,26.87
2018-11-12T05:17:45.397Z,28.13
2018-11-12T05:20:16.629Z,30.70
2018-11-12T05:22:45.357Z,18.67
2018-11-12T05:25:13.835Z,25.57
2018-11-12T05:27:42.377Z,20.57
2018-11-12T05:30:20.451Z,26.00
2018-11-12T05:32:49.154Z,23.10
2018-11-12T05:35:18.853Z,26.17
2018-11-12T05:37:47.387Z,23.27
2018-11-12T05:40:18.325Z,23.47
2018-11-12T05:42:46.778Z,25.40
2018-11-12T05:45:16.261Z,22.93
2018-11-12T05:47:44.728Z,26.20
2018-11-12T05:50:18.513Z,26.50
2018-11-12T05:52:48.570Z,27.90
2018-11-12T05:55:19.025Z,29.07
2018-11-12T05:57:47.844Z,31.97
2018-11-12T06:00:18.578Z,27.70
2018-11-12T06:02:47.289Z,34.70
2018-11-12T06:05:16.565Z,28.33
2018-11-12T06:07:45.201Z,25.93
2018-11-12T06:10:16.498Z,30.40
2018-11-12T06:12:45.243Z,32.83
2018-11-12T06:15:14.399Z,27.23
2018-11-12T06:17:43.455Z,26.10
2018-11-12T06:20:14.333Z,25.53
2018-11-12T06:22:42.825Z,26.10
2018-11-12T06:25:12.324Z,29.53
2018-11-12T06:27:40.743Z,34.03
2018-11-12T06:30:13.541Z,32.87
2018-11-12T06:32:42.007Z,26.83
2018-11-12T06:35:11.794Z,27.20
2018-11-12T06:37:40.876Z,23.97
2018-11-12T06:40:12.205Z,25.47
2018-11-12T06:42:41.163Z,33.23
2018-11-12T06:45:15.667Z,31.83
2018-11-12T06:47:45.194Z,27.20
2018-11-12T06:50:15.226Z,24.20
2018-11-12T06:52:43.784Z,31.50
2018-11-12T06:55:13.598Z,29.40
2018-11-12T06:57:42.731Z,31.03
2018-11-12T07:00:18.544Z,29.43
2018-11-12T07:02:47.253Z,27.23
2018-11-12T07:05:15.951Z,27.17
2018-11-12T07:07:44.891Z,30.20
2018-11-12T07:10:14.770Z,30.60
2018-11-12T07:12:44.400Z,25.70
2018-11-12T07:15:14.395Z,21.97
2018-11-12T07:17:42.909Z,29.10
2018-11-12T07:20:13.714Z,30.57
2018-11-12T07:22:42.319Z,25.67
2018-11-12T07:25:12.246Z,32.03
2018-11-12T07:27:40.618Z,31.90
2018-11-12T07:30:11.188Z,27.30
2018-11-12T07:32:39.900Z,29.83
2018-11-12T07:35:09.792Z,40.17
2018-11-12T07:37:38.163Z,31.03
2018-11-12T07:40:08.263Z,36.47
2018-11-12T07:42:37.338Z,32.87
2018-11-12T07:45:07.482Z,34.50
2018-11-12T07:47:36.209Z,37.40
2018-11-12T07:50:06.567Z,34.33
2018-11-12T07:52:35.177Z,33.73
2018-11-12T07:55:04.248Z,34.97
2018-11-12T07:57:32.779Z,31.10
2018-11-12T08:00:01.320Z,27.53
2018-11-12T08:02:30.203Z,33.43
2018-11-12T08:04:58.638Z,29.17
2018-11-12T08:07:27.877Z,30.87
2018-11-12T08:09:56.364Z,25.87
2018-11-12T08:12:24.826Z,27.23
2018-11-12T08:14:53.394Z,24.50
2018-11-12T08:17:22.246Z,26.93
2018-11-12T08:19:51.203Z,26.93
2018-11-12T08:22:19.752Z,29.20
2018-11-12T08:24:48.190Z,25.50
2018-11-12T08:27:16.898Z,30.47
2018-11-12T08:29:45.484Z,23.80
2018-11-12T08:32:14.130Z,25.13
2018-11-12T08:34:42.642Z,27.70
2018-11-12T08:37:11.203Z,25.10
2018-11-12T08:39:39.852Z,29.67
2018-11-12T08:42:08.248Z,26.37
2018-11-12T08:44:36.668Z,27.57
2018-11-12T08:47:05.414Z,26.67
2018-11-12T08:49:36.903Z,27.63
2018-11-12T08:52:05.578Z,24.83
2018-11-12T08:54:34.629Z,25.80
2018-11-12T08:57:03.552Z,26.87
2018-11-12T08:59:32.038Z,32.10
2018-11-12T09:02:00.424Z,29.43
2018-11-12T09:04:29.234Z,32.70
2018-11-12T09:06:59.935Z,39.73
2018-11-12T09:09:28.528Z,34.90
2018-11-12T09:11:57.110Z,24.47
2018-11-12T09:14:25.751Z,24.23
2018-11-12T09:16:54.332Z,28.20
2018-11-12T09:19:24.355Z,24.47
2018-11-12T09:21:53.372Z,26.83
2018-11-12T09:24:21.952Z,22.37
2018-11-12T09:26:50.359Z,25.00
2018-11-12T09:29:18.869Z,21.73
2018-11-12T09:31:49.211Z,24.90
2018-11-12T09:34:18.252Z,25.90
2018-11-12T09:36:46.931Z,24.07
2018-11-12T09:39:15.438Z,21.70
2018-11-12T09:41:44.137Z,20.20
2018-11-12T09:44:23.589Z,19.57
2018-11-12T09:46:52.081Z,19.70
2018-11-12T09:49:21.704Z,22.87
2018-11-12T09:51:50.453Z,19.27
2018-11-12T09:54:19.059Z,19.70
2018-11-12T09:56:47.556Z,21.37
2018-11-12T09:59:16.231Z,18.77
2018-11-12T10:01:45.607Z,20.77
2018-11-12T10:04:14.456Z,20.27
2018-11-12T10:06:45.794Z,13.87
2018-11-12T10:09:16.023Z,15.10
2018-11-12T10:11:45.051Z,15.70
2018-11-12T10:14:14.277Z,15.07
2018-11-12T10:16:43.085Z,7.70
2018-11-12T10:19:09.981Z,9.00
2018-11-12T10:21:38.646Z,11.80
2018-11-12T10:24:07.364Z,10.60
2018-11-12T10:27:28.590Z,8.27
2018-11-12T10:29:57.308Z,16.57
2018-11-12T10:32:27.397Z,16.30
2018-11-12T10:34:56.070Z,13.60
2018-11-12T10:37:24.758Z,16.80
2018-11-12T10:39:55.925Z,15.00
2018-11-12T10:42:24.671Z,15.83
2018-11-12T10:44:53.418Z,18.07
2018-11-12T10:47:24.699Z,20.63
2018-11-12T10:49:55.918Z,22.67
2018-11-12T10:52:47.497Z,20.60
2018-11-12T10:55:19.675Z,11.80
2018-11-12T10:57:48.971Z,16.67
2018-11-12T11:00:39.665Z,12.57
2018-11-12T11:03:14.786Z,11.00
2018-11-12T11:05:44.516Z,10.07
2018-11-12T11:12:03.856Z,10.97
2018-11-12T11:14:33.976Z,8.43
2018-11-12T11:19:46.236Z,9.07
2018-11-12T11:22:31.253Z,9.30
2018-11-12T11:25:01.595Z,9.03
2018-11-12T11:27:30.574Z,9.13
2018-11-12T11:30:00.605Z,8.57
2018-11-12T11:32:29.502Z,8.00
2018-11-12T11:34:58.290Z,11.83
2018-11-12T11:37:27.153Z,12.13
2018-11-12T11:39:56.042Z,9.60
2018-11-12T11:42:25.662Z,10.87
2018-11-12T11:44:54.184Z,11.90
2018-11-12T11:47:23.977Z,12.43
2018-11-12T11:49:56.629Z,12.67
2018-11-12T11:52:26.234Z,13.13
2018-11-12T11:54:55.193Z,15.23
2018-11-12T11:57:42.747Z,11.37
2018-11-12T12:00:25.432Z,13.83
2018-11-12T12:02:59.934Z,15.47
2018-11-12T12:08:39.496Z,11.77
2018-11-12T12:11:19.371Z,13.33
2018-11-12T12:13:57.613Z,13.97
2018-11-12T12:16:26.391Z,17.63
2018-11-12T12:18:55.051Z,15.53
2018-11-12T12:21:24.154Z,15.73
2018-11-12T12:23:55.212Z,13.83
2018-11-12T12:26:27.034Z,13.73
2018-11-12T12:29:00.700Z,11.40
2018-11-12T12:31:30.781Z,11.53
2018-11-12T12:34:00.613Z,9.50
2018-11-12T12:36:32.065Z,8.20
2018-11-12T12:39:00.717Z,9.03
2018-11-12T12:41:35.139Z,8.63
2018-11-12T12:44:06.831Z,7.27
2018-11-12T12:46:38.112Z,8.60
2018-11-12T12:49:08.026Z,9.77
2018-11-12T12:51:37.340Z,13.37
2018-11-12T12:54:09.524Z,13.03
2018-11-12T12:56:38.523Z,14.17
2018-11-12T12:59:08.179Z,9.53
2018-11-12T13:01:37.703Z,11.20
2018-11-12T13:04:08.573Z,11.60
2018-11-12T13:06:37.699Z,11.03
2018-11-12T13:09:11.661Z,10.27
2018-11-12T13:11:40.802Z,9.53
2018-11-12T13:14:09.656Z,10.47
2018-11-12T13:16:38.446Z,9.17
2018-11-12T13:21:43.498Z,12.43
2018-11-12T13:24:13.357Z,10.17
2018-11-12T13:26:43.098Z,9.53
2018-11-12T13:29:12.862Z,10.63
2018-11-12T13:31:42.945Z,13.93
2018-11-12T13:34:12.649Z,10.90
2018-11-12T13:36:41.905Z,8.97
2018-11-12T13:39:12.517Z,8.80
2018-11-12T13:41:41.758Z,9.53
2018-11-12T13:44:10.565Z,8.07
2018-11-12T13:46:44.375Z,8.17
2018-11-12T13:49:13.300Z,9.70
2018-11-12T13:51:42.182Z,9.93
2018-11-12T13:54:10.803Z,6.70
2018-11-12T13:56:39.446Z,6.57
2018-11-12T13:59:07.959Z,6.03
2018-11-12T14:01:36.621Z,5.40
2018-11-12T14:04:05.809Z,6.17
2018-11-12T14:06:34.676Z,8.33
2018-11-12T14:09:03.321Z,5.83
2018-11-12T14:11:31.888Z,12.77
2018-11-12T14:14:00.499Z,8.47
2018-11-12T14:16:28.972Z,6.77
2018-11-12T14:18:57.519Z,7.10
2018-11-12T14:21:26.223Z,8.33
2018-11-12T14:23:54.628Z,7.47
2018-11-12T14:26:23.237Z,7.50
2018-11-12T14:28:51.923Z,9.70
2018-11-12T14:31:20.417Z,9.30
2018-11-12T14:33:49.573Z,9.17
2018-11-12T14:36:18.236Z,10.17
2018-11-12T14:38:46.918Z,11.40
2018-11-12T14:41:15.983Z,11.57
2018-11-12T14:43:45.168Z,8.67
2018-11-12T14:46:14.012Z,8.60
2018-11-12T14:48:42.830Z,8.47
2018-11-12T14:51:11.929Z,9.70
2018-11-12T14:53:40.460Z,9.57
2018-11-12T14:56:09.165Z,11.07
2018-11-12T14:58:38.144Z,9.00
2018-11-12T15:01:06.768Z,10.43
2018-11-12T15:03:35.734Z,11.73
2018-11-12T15:06:04.513Z,11.60
2018-11-12T15:08:34.042Z,10.83
2018-11-12T15:11:03.085Z,11.80
2018-11-12T15:13:31.862Z,9.33
2018-11-12T15:16:00.497Z,10.50
2018-11-12T15:18:29.977Z,11.83
2018-11-12T15:20:58.608Z,11.00
2018-11-12T15:23:27.185Z,7.03
2018-11-12T15:25:55.975Z,10.90
2018-11-12T15:28:26.944Z,12.90
2018-11-12T15:30:55.554Z,10.43
2018-11-12T15:33:24.101Z,10.00
2018-11-12T15:35:52.777Z,12.63
2018-11-12T15:38:22.356Z,11.33
2018-11-12T15:40:51.072Z,12.00
2018-11-12T15:43:20.022Z,12.87
2018-11-12T15:45:48.537Z,13.17
2018-11-12T15:48:20.650Z,14.73
2018-11-12T15:50:53.731Z,14.57
2018-11-12T15:53:22.260Z,11.53
2018-11-12T15:55:51.359Z,9.83
2018-11-12T15:58:19.910Z,11.87
2018-11-12T16:00:49.081Z,9.80
2018-11-12T16:03:20.644Z,12.47
2018-11-12T16:05:49.467Z,13.90
2018-11-12T16:08:17.955Z,13.13
2018-11-12T16:10:46.510Z,10.87
2018-11-12T16:13:14.995Z,14.57
2018-11-12T16:15:43.821Z,13.57
2018-11-12T16:18:12.305Z,17.10
2018-11-12T16:20:52.548Z,14.47
2018-11-12T16:23:21.970Z,15.47
2018-11-12T16:25:51.091Z,10.13
2018-11-12T16:28:22.652Z,14.67
2018-11-12T16:30:51.631Z,14.93
2018-11-12T16:33:20.164Z,13.22
2018-11-12T16:35:48.596Z,9.63
2018-11-12T16:38:17.012Z,11.40
2018-11-12T16:40:45.479Z,15.00
2018-11-12T16:43:14.045Z,8.83
2018-11-12T16:45:42.475Z,11.47
2018-11-12T16:48:10.929Z,8.67
2018-11-12T16:50:39.380Z,9.27
2018-11-12T16:53:07.989Z,8.80
2018-11-12T16:55:36.464Z,11.67
2018-11-12T16:58:05.036Z,10.97
2018-11-12T17:00:33.568Z,10.00
2018-11-12T17:03:01.937Z,13.30
2018-11-12T17:05:30.484Z,10.87
2018-11-12T17:07:59.571Z,12.47
2018-11-12T17:10:28.151Z,12.80
2018-11-12T17:12:59.728Z,12.73
2018-11-12T17:15:30.931Z,12.40
2018-11-12T17:18:01.014Z,14.70
2018-11-12T17:20:29.620Z,17.43
2018-11-12T17:22:58.036Z,14.90
2018-11-12T17:25:26.510Z,16.40
2018-11-12T17:27:56.722Z,15.30
2018-11-12T17:30:29.703Z,17.70
2018-11-12T17:33:04.370Z,15.20
2018-11-12T17:35:43.081Z,18.13
2018-11-12T17:38:11.844Z,15.60
2018-11-12T17:40:40.377Z,14.77
2018-11-12T17:43:08.830Z,13.43
2018-11-12T17:45:37.397Z,14.37
2018-11-12T17:48:06.127Z,15.73
2018-11-12T17:50:34.689Z,15.37
2018-11-12T17:53:03.250Z,13.83
2018-11-12T17:55:32.287Z,17.13
2018-11-12T17:58:00.698Z,18.73
2018-11-12T18:00:32.830Z,18.50
2018-11-12T18:03:01.298Z,17.77
2018-11-12T18:05:34.248Z,18.00
2018-11-12T18:08:02.784Z,20.50
2018-11-12T18:10:31.218Z,17.07
2018-11-12T18:12:59.812Z,19.07
2018-11-12T18:15:28.563Z,19.97
2018-11-12T18:17:58.954Z,24.23
2018-11-12T18:20:28.058Z,19.90
2018-11-12T18:22:57.245Z,18.00
2018-11-12T18:25:25.811Z,19.47
2018-11-12T18:28:01.710Z,18.77
2018-11-12T18:30:32.841Z,17.97
2018-11-12T18:33:01.471Z,20.30
2018-11-12T18:35:31.807Z,17.40
2018-11-12T18:38:04.169Z,16.90
2018-11-12T18:40:32.668Z,21.73
2018-11-12T18:43:01.114Z,27.00
2018-11-12T18:45:30.164Z,17.57
2018-11-12T18:48:00.260Z,19.13
2018-11-12T18:50:33.781Z,18.43
2018-11-12T18:53:02.442Z,19.63
2018-11-12T18:55:31.331Z,19.67
2018-11-12T18:57:59.966Z,19.33
2018-11-12T19:00:29.567Z,17.40
2018-11-12T19:02:58.252Z,23.07
2018-11-12T19:05:28.143Z,18.03
2018-11-12T19:07:58.388Z,19.57
2018-11-12T19:10:29.885Z,19.77
2018-11-12T19:12:58.389Z,17.93
2018-11-12T19:15:36.618Z,17.53
2018-11-12T19:18:09.926Z,18.83
2018-11-12T19:20:39.903Z,16.97
2018-11-12T19:23:08.739Z,17.13
2018-11-12T19:25:45.880Z,15.90
2018-11-12T19:28:15.894Z,19.20
2018-11-12T19:30:50.938Z,18.33
2018-11-12T19:33:19.472Z,19.00
2018-11-12T19:35:52.634Z,14.97
2018-11-12T19:38:21.310Z,17.83
2018-11-12T19:40:49.959Z,14.20
2018-11-12T19:43:18.515Z,15.37
2018-11-12T19:45:51.088Z,28.63
2018-11-12T19:48:21.367Z,12.23
2018-11-12T19:50:50.824Z,16.67
2018-11-12T19:53:40.491Z,23.20
2018-11-12T19:56:09.064Z,11.57
2018-11-12T19:58:37.549Z,18.77
2018-11-12T20:01:07.671Z,12.90
2018-11-12T20:03:36.267Z,16.07
2018-11-12T20:06:05.191Z,13.60
2018-11-12T20:08:34.613Z,11.53
2018-11-12T20:11:03.312Z,13.30
2018-11-12T20:13:32.906Z,13.13
2018-11-12T20:16:02.640Z,16.60
2018-11-12T20:18:31.111Z,16.73
2018-11-12T20:20:59.828Z,13.00
2018-11-12T20:23:28.313Z,17.80
2018-11-12T20:25:56.982Z,11.77
2018-11-12T20:28:25.481Z,12.53
2018-11-12T20:30:54.264Z,14.47
2018-11-12T20:33:22.709Z,11.50
2018-11-12T20:35:51.225Z,12.73
2018-11-12T20:38:19.765Z,14.47
2018-11-12T20:40:48.489Z,11.60
2018-11-12T20:43:18.153Z,11.60
2018-11-12T20:45:47.499Z,11.20
2018-11-12T20:48:19.263Z,12.67
2018-11-12T20:50:47.729Z,12.73
2018-11-12T20:53:18.625Z,11.83
2018-11-12T20:55:47.500Z,11.40
2018-11-12T20:58:15.987Z,17.50
2018-11-12T21:00:44.466Z,16.67
2018-11-12T21:03:13.005Z,13.03
2018-11-12T21:05:41.525Z,16.90
2018-11-12T21:08:10.154Z,11.97
2018-11-12T21:10:38.702Z,14.73
2018-11-12T21:13:07.222Z,18.03
2018-11-12T21:15:35.866Z,11.97
2018-11-12T21:18:04.503Z,17.67
2018-11-12T21:20:34.753Z,14.90
2018-11-12T21:23:03.325Z,10.13
2018-11-12T21:25:31.993Z,16.47
2018-11-12T21:28:00.530Z,14.93
2018-11-12T21:30:29.312Z,11.87
2018-11-12T21:32:58.169Z,16.90
2018-11-12T21:35:27.161Z,14.43
2018-11-12T21:37:56.914Z,9.23
2018-11-12T21:40:26.822Z,15.90
2018-11-12T21:42:55.503Z,12.83
2018-11-12T21:45:28.341Z,15.30
2018-11-12T21:47:56.874Z,15.10
2018-11-12T21:50:25.706Z,15.50
2018-11-12T21:52:54.598Z,15.97
2018-11-12T21:55:23.088Z,16.37
2018-11-12T21:57:51.587Z,17.80
2018-11-12T22:00:23.808Z,14.43
2018-11-12T22:02:53.600Z,12.43
2018-11-12T22:05:22.809Z,12.03
2018-11-12T22:07:52.267Z,13.00
2018-11-12T22:10:20.711Z,14.93
2018-11-12T22:12:50.082Z,10.60
2018-11-12T22:15:18.589Z,11.43
2018-11-12T22:17:46.997Z,10.87
2018-11-12T22:20:16.915Z,18.30
2018-11-12T22:22:45.359Z,12.00
2018-11-12T22:25:16.056Z,16.07
2018-11-12T22:27:45.098Z,11.43
2018-11-12T22:30:15.692Z,11.93
2018-11-12T22:32:45.252Z,10.97
2018-11-12T22:35:13.702Z,15.40
2018-11-12T22:37:42.680Z,13.43
2018-11-12T22:40:12.388Z,10.40
2018-11-12T22:42:41.672Z,14.33
2018-11-12T22:45:12.206Z,12.10
2018-11-12T22:47:40.648Z,12.47
2018-11-12T22:50:09.874Z,11.23
2018-11-12T22:52:38.920Z,10.07
2018-11-12T22:55:07.795Z,8.47
2018-11-12T22:57:36.428Z,14.93
2018-11-12T23:00:09.644Z,15.67
2018-11-12T23:02:38.256Z,13.00
2018-11-12T23:05:07.108Z,12.37
2018-11-12T23:07:35.576Z,11.10
2018-11-12T23:10:04.370Z,11.87
2018-11-12T23:12:32.894Z,11.10
2018-11-12T23:15:01.270Z,11.60
2018-11-12T23:17:30.004Z,14.70
2018-11-12T23:19:58.838Z,13.83
2018-11-12T23:22:27.513Z,13.40
2018-11-12T23:24:56.281Z,10.53
2018-11-12T23:27:25.009Z,14.83
2018-11-12T23:29:53.401Z,13.73
2018-11-12T23:32:21.806Z,16.53
2018-11-12T23:34:50.348Z,14.40
2018-11-12T23:37:18.770Z,14.03
2018-11-12T23:39:47.216Z,14.17
2018-11-12T23:42:16.177Z,13.53
2018-11-12T23:44:44.621Z,14.83
2018-11-12T23:47:13.075Z,13.47
2018-11-12T23:49:41.509Z,16.40
2018-11-12T23:52:09.953Z,14.00
2018-11-12T23:54:38.447Z,14.70
2018-11-12T23:57:07.044Z,13.10
2018-11-12T23:59:35.535Z,16.67
